Time;durP1;ratioP1;P1;durP2;ratioP2;P2;SDS_P1;SDS_P2;PMS_P1;PMS_P2;Temp;Humidity;BMP_temperature;BMP_pressure;BME280_temperature;BME280_humidity;BME280_pressure;Samples;Min_cycle;Max_cycle;Signal;HPM_P1;HPM_P2
2021/06/23 00:00:34;;;;;;;7.00;6.30;;;18.30;82.80;;;;;;5059971;28;20457;-47
2021/06/23 00:03:02;;;;;;;8.60;6.53;;;18.30;82.80;;;;;;5057674;28;20476;-47
2021/06/23 00:05:29;;;;;;;10.40;6.20;;;18.30;82.70;;;;;;5060647;28;20464;-47
2021/06/23 00:07:55;;;;;;;9.67;6.17;;;18.30;82.50;;;;;;5062355;28;20453;-47
2021/06/23 00:10:22;;;;;;;8.40;6.77;;;18.20;82.40;;;;;;5060029;28;20462;-47
2021/06/23 00:12:50;;;;;;;7.60;6.37;;;18.20;82.40;;;;;;5061956;28;20485;-47
2021/06/23 00:15:18;;;;;;;7.07;6.37;;;18.20;82.40;;;;;;5059059;28;20450;-47
2021/06/23 00:17:45;;;;;;;8.10;5.87;;;18.20;82.40;;;;;;5062971;28;20477;-47
2021/06/23 00:20:13;;;;;;;8.90;6.80;;;18.20;82.50;;;;;;5062926;28;20461;-47
2021/06/23 00:22:40;;;;;;;7.53;6.33;;;18.10;82.60;;;;;;5061440;28;20462;-47
2021/06/23 00:25:08;;;;;;;8.63;7.00;;;18.10;82.70;;;;;;5060234;28;20478;-47
2021/06/23 00:27:34;;;;;;;6.77;5.60;;;18.10;82.80;;;;;;5065807;28;20461;-47
2021/06/23 00:30:02;;;;;;;9.93;6.80;;;18.10;82.80;;;;;;5062489;28;20833;-48
2021/06/23 00:32:31;;;;;;;7.30;6.37;;;18.10;82.90;;;;;;5063695;28;21068;-47
2021/06/23 00:34:58;;;;;;;12.50;8.10;;;18.10;83.00;;;;;;5060937;28;20732;-48
2021/06/23 00:37:24;;;;;;;9.73;6.90;;;18.10;82.90;;;;;;5062738;28;20465;-48
2021/06/23 00:39:51;;;;;;;7.23;6.40;;;18.10;83.00;;;;;;5062028;28;20458;-47
2021/06/23 00:42:18;;;;;;;12.10;7.80;;;18.10;83.00;;;;;;5061899;28;20470;-47
2021/06/23 00:44:45;;;;;;;8.00;6.20;;;18.20;82.90;;;;;;5063984;28;20453;-47
2021/06/23 00:47:12;;;;;;;7.73;6.90;;;18.20;82.90;;;;;;5062958;28;20466;-47
2021/06/23 00:49:39;;;;;;;9.57;7.10;;;18.20;82.50;;;;;;5063522;28;20458;-47
2021/06/23 00:52:07;;;;;;;11.30;7.10;;;18.20;82.70;;;;;;5059802;28;20994;-47
2021/06/23 00:54:34;;;;;;;8.60;6.70;;;18.20;82.80;;;;;;5087637;28;20459;-47
2021/06/23 00:57:05;;;;;;;8.07;7.27;;;18.20;82.90;;;;;;5060706;28;20461;-48
2021/06/23 00:59:33;;;;;;;8.70;7.30;;;18.20;82.80;;;;;;5060880;28;20449;-48
2021/06/23 01:02:02;;;;;;;8.00;7.10;;;18.20;82.80;;;;;;5057833;28;20458;-48
2021/06/23 01:04:29;;;;;;;9.90;6.60;;;18.20;82.80;;;;;;5059613;28;20492;-48
2021/06/23 01:06:57;;;;;;;8.30;6.67;;;18.20;83.00;;;;;;5074919;28;20465;-48
2021/06/23 01:09:24;;;;;;;8.50;7.60;;;18.20;83.00;;;;;;5061547;28;20465;-48
2021/06/23 01:12:28;;;;;;;8.57;7.37;;;18.20;82.90;;;;;;5060505;28;20482;-48
2021/06/23 01:15:00;;;;;;;7.03;6.00;;;18.30;82.40;;;;;;5060641;28;20465;-48
2021/06/23 01:17:29;;;;;;;7.87;7.07;;;18.40;81.80;;;;;;5062068;28;20665;-48
2021/06/23 01:20:16;;;;;;;8.90;7.60;;;18.40;81.80;;;;;;5064649;28;20473;-48
2021/06/23 01:22:44;;;;;;;8.17;7.37;;;18.30;81.80;;;;;;5061420;28;20553;-48
2021/06/23 01:25:12;;;;;;;8.67;6.87;;;18.30;82.00;;;;;;5063549;28;20453;-48
2021/06/23 01:27:42;;;;;;;10.80;6.97;;;18.40;82.00;;;;;;5065042;28;21339;-48
2021/06/23 01:30:10;;;;;;;9.07;6.97;;;18.40;81.30;;;;;;5060935;28;20457;-48
2021/06/23 01:32:37;;;;;;;9.70;7.27;;;18.40;81.30;;;;;;5058841;28;20487;-48
2021/06/23 01:35:05;;;;;;;10.17;7.80;;;18.40;81.50;;;;;;5060982;28;20465;-48
2021/06/23 01:37:31;;;;;;;9.97;6.97;;;18.30;81.60;;;;;;5065137;28;20976;-48
2021/06/23 01:39:59;;;;;;;8.93;7.60;;;18.30;81.60;;;;;;5088927;28;20457;-48
2021/06/23 01:42:27;;;;;;;8.90;6.70;;;18.30;81.60;;;;;;5061410;28;20457;-48
2021/06/23 01:44:54;;;;;;;10.10;8.77;;;18.30;81.80;;;;;;5060639;28;20455;-48
2021/06/23 01:47:21;;;;;;;8.20;7.30;;;18.30;81.80;;;;;;5062927;28;20553;-48
2021/06/23 01:49:48;;;;;;;7.90;7.20;;;18.30;81.80;;;;;;5063609;28;20467;-48
2021/06/23 01:52:15;;;;;;;9.70;7.47;;;18.30;81.40;;;;;;5058634;28;20882;-48
2021/06/23 01:54:43;;;;;;;13.43;7.43;;;18.20;81.40;;;;;;5057702;28;20541;-48
2021/06/23 01:57:11;;;;;;;7.70;6.77;;;18.20;81.40;;;;;;5061144;28;20450;-48
2021/06/23 01:59:38;;;;;;;10.40;8.30;;;18.30;81.30;;;;;;5057243;28;20462;-48
2021/06/23 02:02:28;;;;;;;11.70;8.53;;;18.20;81.30;;;;;;5057409;28;20490;-48
2021/06/23 02:05:04;;;;;;;11.33;7.73;;;18.20;81.30;;;;;;5056406;28;20463;-48
2021/06/23 02:07:54;;;;;;;9.57;7.90;;;18.20;81.30;;;;;;5059604;28;21416;-48
2021/06/23 02:10:45;;;;;;;9.97;7.97;;;18.20;81.40;;;;;;5055381;28;20512;-48
2021/06/23 02:13:29;;;;;;;11.50;8.20;;;18.20;81.40;;;;;;5062938;28;20483;-48
2021/06/23 02:16:02;;;;;;;9.10;7.90;;;18.20;81.40;;;;;;5056802;28;20462;-48
2021/06/23 02:18:28;;;;;;;9.53;8.00;;;18.20;81.40;;;;;;5061698;28;20501;-48
2021/06/23 02:20:58;;;;;;;11.43;8.50;;;18.20;81.20;;;;;;5055129;28;20484;-48
2021/06/23 02:23:25;;;;;;;8.57;7.67;;;18.20;81.20;;;;;;5058645;28;20878;-48
2021/06/23 02:25:53;;;;;;;11.30;9.30;;;18.20;81.50;;;;;;5060474;28;20861;-48
2021/06/23 02:28:21;;;;;;;8.90;8.00;;;18.30;81.50;;;;;;5057850;28;20824;-48
2021/06/23 02:30:49;;;;;;;9.67;8.10;;;18.20;81.50;;;;;;5071600;28;20458;-46
2021/06/23 02:33:19;;;;;;;10.00;7.60;;;18.20;81.40;;;;;;5063702;28;20485;-46
2021/06/23 02:35:46;;;;;;;9.60;7.77;;;18.20;81.50;;;;;;5061026;28;20964;-46
2021/06/23 02:38:13;;;;;;;8.20;7.40;;;18.20;81.60;;;;;;5057514;28;20548;-46
2021/06/23 02:40:40;;;;;;;9.83;8.50;;;18.20;81.60;;;;;;5059005;28;20461;-46
2021/06/23 02:43:07;;;;;;;12.80;8.00;;;18.20;81.50;;;;;;5063801;28;20480;-46
2021/06/23 02:45:34;;;;;;;11.93;8.33;;;18.20;81.50;;;;;;5059543;28;20459;-48
2021/06/23 02:48:01;;;;;;;8.40;7.23;;;18.20;81.50;;;;;;5063801;28;20461;-48
2021/06/23 02:50:34;;;;;;;8.80;7.90;;;18.20;81.50;;;;;;5060662;28;20461;-48
2021/06/23 02:53:03;;;;;;;9.17;7.30;;;18.20;81.60;;;;;;5062122;28;20494;-48
2021/06/23 02:55:31;;;;;;;9.40;8.30;;;18.20;81.70;;;;;;5060848;28;20465;-48
2021/06/23 02:57:58;;;;;;;10.07;7.93;;;18.10;81.80;;;;;;5060363;28;20457;-48
2021/06/23 03:00:25;;;;;;;8.70;7.70;;;18.10;81.90;;;;;;5055565;28;20507;-48
2021/06/23 03:02:53;;;;;;;8.77;7.20;;;18.10;82.00;;;;;;5060535;28;20466;-48
2021/06/23 03:05:20;;;;;;;9.93;7.73;;;18.10;82.00;;;;;;5060294;28;20465;-48
2021/06/23 03:07:47;;;;;;;9.60;7.53;;;18.10;82.10;;;;;;5058479;28;20458;-48
2021/06/23 03:10:14;;;;;;;10.80;7.47;;;18.00;82.10;;;;;;5059520;28;20630;-48
2021/06/23 03:12:41;;;;;;;8.47;7.67;;;18.00;82.20;;;;;;5055536;28;20581;-48
2021/06/23 03:15:08;;;;;;;7.53;6.83;;;18.00;82.20;;;;;;5056268;28;20445;-48
2021/06/23 03:17:35;;;;;;;12.40;7.67;;;17.90;82.40;;;;;;5056992;28;20824;-48
2021/06/23 03:20:09;;;;;;;8.60;7.70;;;17.90;82.50;;;;;;5058205;28;21252;-48
2021/06/23 03:22:36;;;;;;;11.60;8.57;;;18.00;82.50;;;;;;5056438;28;20469;-48
2021/06/23 03:25:04;;;;;;;14.13;8.17;;;17.90;82.50;;;;;;5060881;28;20458;-48
2021/06/23 03:27:33;;;;;;;10.20;8.77;;;17.90;82.60;;;;;;5054833;28;20464;-48
2021/06/23 03:30:00;;;;;;;11.83;9.03;;;17.90;82.60;;;;;;5056016;28;20456;-48
2021/06/23 03:32:26;;;;;;;15.43;9.73;;;17.90;82.70;;;;;;5058035;28;20656;-48
2021/06/23 03:34:53;;;;;;;11.13;9.27;;;17.90;82.70;;;;;;5059513;28;20465;-48
2021/06/23 03:37:20;;;;;;;8.87;7.70;;;17.90;82.90;;;;;;5052979;28;20473;-48
2021/06/23 03:39:47;;;;;;;10.37;8.70;;;17.90;82.80;;;;;;5072281;28;20456;-48
2021/06/23 03:42:14;;;;;;;9.93;8.37;;;17.90;82.90;;;;;;5084978;28;20830;-48
2021/06/23 03:44:41;;;;;;;9.40;8.40;;;17.90;83.00;;;;;;5057342;28;20577;-48
2021/06/23 03:47:11;;;;;;;8.90;7.60;;;17.80;83.10;;;;;;5055222;28;20461;-48
2021/06/23 03:49:37;;;;;;;7.80;7.00;;;17.90;83.00;;;;;;5057360;28;20462;-48
2021/06/23 03:52:04;;;;;;;12.67;8.63;;;17.80;82.90;;;;;;5055610;28;20489;-48
2021/06/23 03:54:31;;;;;;;11.17;8.07;;;17.80;83.00;;;;;;5067204;28;20453;-48
2021/06/23 03:56:58;;;;;;;10.40;8.03;;;17.80;83.10;;;;;;5066713;28;20465;-48
2021/06/23 03:59:25;;;;;;;9.97;6.97;;;17.80;83.10;;;;;;5059159;28;20462;-48
2021/06/23 04:01:52;;;;;;;8.80;7.90;;;17.80;83.20;;;;;;5057919;28;20462;-48
2021/06/23 04:04:18;;;;;;;11.03;8.10;;;17.90;83.20;;;;;;5060534;28;20462;-48
2021/06/23 04:06:45;;;;;;;13.57;8.97;;;17.90;83.10;;;;;;5057152;28;20458;-48
2021/06/23 04:09:12;;;;;;;9.30;8.00;;;17.80;83.10;;;;;;5064395;28;20462;-48
2021/06/23 04:11:39;;;;;;;11.53;7.83;;;17.90;83.20;;;;;;5087770;28;20462;-48
2021/06/23 04:14:06;;;;;;;8.87;7.70;;;17.90;83.20;;;;;;5057874;28;20488;-48
2021/06/23 04:16:33;;;;;;;10.10;8.40;;;17.90;83.30;;;;;;5057040;28;20454;-48
2021/06/23 04:19:00;;;;;;;9.40;8.47;;;17.90;83.30;;;;;;5059725;28;21222;-48
2021/06/23 04:21:26;;;;;;;8.80;7.90;;;17.90;83.40;;;;;;5061298;28;20489;-48
2021/06/23 04:23:53;;;;;;;13.00;7.67;;;17.90;83.40;;;;;;5059370;28;20458;-48
2021/06/23 04:26:20;;;;;;;9.10;7.50;;;17.90;83.30;;;;;;5058064;28;20461;-48
2021/06/23 04:28:47;;;;;;;9.20;7.27;;;17.90;83.40;;;;;;5057520;28;20471;-48
2021/06/23 04:31:14;;;;;;;9.63;7.77;;;17.90;83.40;;;;;;5055815;28;20494;-48
2021/06/23 04:33:41;;;;;;;9.07;8.07;;;18.00;83.40;;;;;;5058337;28;20488;-48
2021/06/23 04:36:07;;;;;;;9.87;7.47;;;18.00;83.30;;;;;;5061967;28;20461;-48
2021/06/23 04:38:34;;;;;;;10.87;7.00;;;18.00;83.30;;;;;;5064365;28;20464;-48
2021/06/23 04:41:01;;;;;;;8.20;7.40;;;18.10;83.30;;;;;;5060423;28;20488;-48
2021/06/23 04:43:28;;;;;;;13.27;6.60;;;18.10;83.00;;;;;;5059621;28;20825;-48
2021/06/23 04:45:55;;;;;;;8.50;6.47;;;18.10;83.00;;;;;;5056925;28;20475;-48
2021/06/23 04:48:21;;;;;;;8.90;7.97;;;18.20;83.00;;;;;;5062715;28;20939;-48
2021/06/23 04:50:48;;;;;;;8.47;6.90;;;18.20;82.60;;;;;;5059078;28;20457;-48
2021/06/23 04:53:15;;;;;;;10.70;8.27;;;18.30;82.30;;;;;;5061632;28;20489;-48
2021/06/23 04:55:42;;;;;;;12.60;7.80;;;18.30;82.20;;;;;;5058133;28;20448;-48
2021/06/23 04:58:08;;;;;;;9.83;7.37;;;18.30;81.80;;;;;;5060196;28;20453;-48
2021/06/23 05:00:35;;;;;;;9.43;7.17;;;18.30;81.80;;;;;;5061875;28;20453;-48
2021/06/23 05:03:04;;;;;;;9.00;6.83;;;18.40;81.60;;;;;;5058810;28;20488;-48
2021/06/23 05:05:30;;;;;;;9.40;7.23;;;18.40;81.80;;;;;;5064689;28;20457;-48
2021/06/23 05:07:57;;;;;;;9.17;8.13;;;18.40;81.80;;;;;;5059985;28;20453;-48
2021/06/23 05:10:24;;;;;;;8.97;8.00;;;18.40;81.80;;;;;;5058191;28;20469;-48
2021/06/23 05:12:52;;;;;;;9.10;8.13;;;18.50;81.70;;;;;;5063820;28;20926;-48
2021/06/23 05:15:19;;;;;;;8.67;7.80;;;18.50;81.50;;;;;;5062555;28;20905;-48
2021/06/23 05:18:04;;;;;;;9.73;8.73;;;18.50;81.60;;;;;;5062707;28;20478;-48
2021/06/23 05:20:32;;;;;;;8.97;8.07;;;18.50;81.60;;;;;;5064520;28;20448;-48
2021/06/23 05:22:59;;;;;;;11.57;9.20;;;18.50;81.50;;;;;;5066115;28;20479;-48
2021/06/23 05:25:26;;;;;;;13.60;9.27;;;18.50;81.50;;;;;;5063131;28;20447;-48
2021/06/23 05:27:53;;;;;;;9.87;8.23;;;18.60;81.60;;;;;;5061450;28;20564;-48
2021/06/23 05:30:20;;;;;;;8.47;7.40;;;18.60;81.60;;;;;;5060047;28;20862;-48
2021/06/23 05:32:47;;;;;;;10.33;8.00;;;18.60;81.70;;;;;;5056722;28;20493;-48
2021/06/23 05:35:14;;;;;;;9.87;8.87;;;18.50;81.70;;;;;;5061348;28;20454;-48
2021/06/23 05:37:41;;;;;;;12.30;8.33;;;18.50;81.80;;;;;;5062263;28;20453;-48
2021/06/23 05:40:08;;;;;;;12.27;8.73;;;18.60;81.90;;;;;;5060444;28;20836;-48
2021/06/23 05:42:35;;;;;;;9.00;8.20;;;18.60;81.90;;;;;;5064201;28;20462;-48
2021/06/23 05:45:02;;;;;;;9.37;7.87;;;18.60;81.70;;;;;;5062539;28;20457;-48
2021/06/23 05:47:30;;;;;;;10.37;8.00;;;18.60;81.50;;;;;;5088335;28;20449;-48
2021/06/23 05:49:56;;;;;;;9.97;7.87;;;18.60;81.50;;;;;;5062851;28;20469;-48
2021/06/23 05:52:23;;;;;;;8.47;7.63;;;18.60;81.60;;;;;;5060807;28;20534;-48
2021/06/23 05:54:50;;;;;;;12.17;8.40;;;18.60;81.70;;;;;;5063994;28;20454;-48
2021/06/23 05:57:17;;;;;;;10.23;8.47;;;18.70;81.60;;;;;;5057158;28;20459;-48
2021/06/23 05:59:43;;;;;;;9.87;8.47;;;18.70;81.70;;;;;;5056207;28;20532;-48
2021/06/23 06:02:12;;;;;;;10.67;8.43;;;18.70;81.60;;;;;;5058542;28;20952;-48
2021/06/23 06:04:39;;;;;;;11.80;8.17;;;18.80;81.20;;;;;;5085942;28;20462;-48
2021/06/23 06:07:06;;;;;;;9.10;7.90;;;18.90;80.90;;;;;;5055240;28;20457;-48
2021/06/23 06:09:33;;;;;;;8.73;7.87;;;18.90;79.80;;;;;;5054673;28;20470;-48
2021/06/23 06:12:00;;;;;;;9.80;8.80;;;19.00;79.70;;;;;;5086424;28;20834;-48
2021/06/23 06:14:26;;;;;;;10.57;8.33;;;19.00;79.70;;;;;;5055713;28;20494;-48
2021/06/23 06:16:53;;;;;;;11.00;8.53;;;19.00;79.70;;;;;;5056234;28;20455;-48
2021/06/23 06:19:20;;;;;;;10.30;8.93;;;19.00;79.90;;;;;;5057359;28;20466;-48
2021/06/23 06:21:47;;;;;;;11.20;7.90;;;19.10;80.10;;;;;;5062033;28;20480;-48
2021/06/23 06:24:14;;;;;;;9.70;8.70;;;19.10;80.10;;;;;;5057131;28;20860;-48
2021/06/23 06:26:40;;;;;;;9.30;6.80;;;19.20;79.60;;;;;;5056238;28;20579;-48
2021/06/23 06:29:07;;;;;;;8.80;7.10;;;19.30;79.20;;;;;;5055721;28;20950;-48
2021/06/23 06:31:34;;;;;;;11.20;6.90;;;19.30;78.70;;;;;;5058793;28;20965;-48
2021/06/23 06:34:01;;;;;;;6.53;5.67;;;19.40;77.50;;;;;;5056264;28;20498;-48
2021/06/23 06:36:28;;;;;;;7.97;7.17;;;19.30;77.40;;;;;;5056543;28;20454;-48
2021/06/23 06:38:55;;;;;;;6.70;6.00;;;19.40;77.20;;;;;;5053970;28;21046;-48
2021/06/23 06:41:21;;;;;;;12.40;6.80;;;19.40;76.60;;;;;;5060239;28;20471;-48
2021/06/23 06:43:48;;;;;;;18.17;7.83;;;19.40;76.60;;;;;;5054645;28;20491;-48
2021/06/23 06:46:15;;;;;;;10.40;6.77;;;19.40;76.90;;;;;;5085809;28;20563;-48
2021/06/23 06:48:42;;;;;;;7.10;6.23;;;19.50;76.70;;;;;;5070375;28;20515;-48
2021/06/23 06:51:08;;;;;;;7.67;5.63;;;19.50;76.60;;;;;;5084851;28;20475;-48
2021/06/23 06:53:36;;;;;;;6.47;5.67;;;19.60;76.90;;;;;;5057265;28;20489;-48
2021/06/23 06:56:04;;;;;;;8.07;5.93;;;19.60;76.90;;;;;;5052099;28;20453;-48
2021/06/23 06:58:30;;;;;;;8.60;6.90;;;19.60;77.10;;;;;;5084591;28;20453;-48
2021/06/23 07:00:57;;;;;;;8.93;6.57;;;19.70;76.80;;;;;;5055354;28;20968;-48
2021/06/23 07:03:24;;;;;;;8.67;6.53;;;19.80;77.00;;;;;;5058142;28;20540;-48
2021/06/23 07:05:51;;;;;;;7.73;6.90;;;19.90;76.20;;;;;;5055785;28;20465;-48
2021/06/23 07:08:17;;;;;;;8.10;7.10;;;20.00;76.10;;;;;;5059707;28;20455;-48
2021/06/23 07:10:44;;;;;;;7.53;6.50;;;20.00;75.00;;;;;;5056742;28;20549;-48
2021/06/23 07:13:11;;;;;;;10.67;7.10;;;20.00;75.20;;;;;;5055250;28;20486;-48
2021/06/23 07:15:38;;;;;;;8.70;7.10;;;20.00;75.50;;;;;;5056439;28;20515;-48
2021/06/23 07:18:05;;;;;;;8.60;6.80;;;20.10;75.40;;;;;;5055834;28;20465;-48
2021/06/23 07:20:32;;;;;;;8.60;6.07;;;20.30;75.30;;;;;;5054466;28;20501;-48
2021/06/23 07:22:58;;;;;;;8.63;7.67;;;20.40;75.00;;;;;;5056180;28;20520;-48
2021/06/23 07:25:25;;;;;;;8.33;6.73;;;20.60;74.00;;;;;;5056853;28;20454;-48
2021/06/23 07:27:55;;;;;;;14.80;8.60;;;20.60;73.80;;;;;;5059187;28;20457;-48
2021/06/23 07:30:22;;;;;;;7.80;7.00;;;20.60;73.50;;;;;;5057403;28;20545;-48
2021/06/23 07:32:52;;;;;;;;;;;;;;;;;;;;;
2021/06/23 07:38:07;;;;;;;12.47;8.77;;;20.80;73.40;;;;;;5050728;28;20446;-48
2021/06/23 07:40:51;;;;;;;10.60;8.57;;;20.70;73.70;;;;;;5057391;28;20971;-48
2021/06/23 07:43:19;;;;;;;11.80;10.30;;;20.80;73.90;;;;;;5057021;28;20457;-48
2021/06/23 07:45:53;;;;;;;13.37;9.50;;;20.90;73.60;;;;;;5054627;28;20466;-48
2021/06/23 07:48:31;;;;;;;14.70;10.60;;;20.90;73.90;;;;;;5054383;28;20458;-48
2021/06/23 07:51:16;;;;;;;10.97;8.83;;;21.10;73.60;;;;;;5057445;28;20878;-48
2021/06/23 07:56:27;;;;;;;10.50;9.00;;;21.30;72.40;;;;;;5054996;28;20701;-49
2021/06/23 08:11:00;;;;;;;12.97;8.80;;;22.10;71.10;;;;;;5053651;28;20461;-49
2021/06/23 08:12:54;;;;;;;13.03;10.10;;;22.20;70.70;;;;;;5050854;28;20459;-49
2021/06/23 08:15:22;;;;;;;9.27;7.73;;;22.30;69.50;;;;;;5053729;28;20947;-49
2021/06/23 08:17:49;;;;;;;9.10;7.60;;;22.40;69.60;;;;;;5058725;28;20536;-49
2021/06/23 08:20:16;;;;;;;9.40;8.43;;;22.50;70.70;;;;;;5055815;28;20466;-49
2021/06/23 08:22:43;;;;;;;14.33;8.40;;;22.60;70.50;;;;;;5085920;28;20947;-49
2021/06/23 08:25:11;;;;;;;9.77;7.40;;;22.70;69.80;;;;;;5054854;28;20465;-49
2021/06/23 08:27:39;;;;;;;11.40;8.90;;;22.90;68.90;;;;;;5052057;28;20446;-49
2021/06/23 08:30:08;;;;;;;9.43;7.97;;;23.00;68.10;;;;;;5052112;28;20438;-49
2021/06/23 08:32:35;;;;;;;11.07;8.40;;;22.90;68.50;;;;;;5060647;28;20454;-49
2021/06/23 08:35:02;;;;;;;8.27;7.40;;;22.90;68.70;;;;;;5056528;28;20493;-49
2021/06/23 08:37:29;;;;;;;8.93;7.37;;;22.80;69.20;;;;;;5059048;28;20449;-49
2021/06/23 08:39:55;;;;;;;8.33;6.97;;;22.90;70.10;;;;;;5059590;28;20453;-49
2021/06/23 08:42:23;;;;;;;7.60;6.90;;;23.10;69.00;;;;;;5056172;28;20458;-49
2021/06/23 08:44:50;;;;;;;8.43;7.63;;;23.40;67.80;;;;;;5057584;28;20458;-49
2021/06/23 08:47:17;;;;;;;8.40;6.43;;;23.60;67.60;;;;;;5057656;28;20962;-49
2021/06/23 08:49:46;;;;;;;8.47;7.10;;;23.70;66.80;;;;;;5058292;28;20454;-49
2021/06/23 08:52:13;;;;;;;8.50;6.63;;;23.90;66.60;;;;;;5059160;28;20517;-49
2021/06/23 08:54:41;;;;;;;9.77;8.53;;;24.10;66.10;;;;;;5056577;28;20485;-49
2021/06/23 08:57:10;;;;;;;8.20;7.30;;;24.30;64.80;;;;;;5059962;28;20962;-48
2021/06/23 08:59:41;;;;;;;12.37;7.03;;;24.50;64.60;;;;;;5060355;28;20946;-49
2021/06/23 09:02:13;;;;;;;7.30;6.57;;;24.60;64.50;;;;;;5087024;28;20450;-48
2021/06/23 09:05:00;;;;;;;8.30;6.30;;;24.70;63.90;;;;;;5059470;28;20464;-48
2021/06/23 09:07:56;;;;;;;10.47;7.00;;;24.70;63.90;;;;;;5059664;28;20445;-49
2021/06/23 09:10:23;;;;;;;7.70;7.00;;;24.80;63.30;;;;;;5056050;28;21066;-49
2021/06/23 09:13:06;;;;;;;7.67;6.97;;;24.90;63.60;;;;;;5056612;28;20770;-49
2021/06/23 09:15:52;;;;;;;6.73;6.10;;;25.00;63.10;;;;;;5057847;28;20867;-49
2021/06/23 09:18:25;;;;;;;9.13;5.83;;;25.00;63.50;;;;;;5058992;28;20465;-49
2021/06/23 09:21:06;;;;;;;7.67;6.93;;;25.20;63.00;;;;;;5058165;28;20437;-48
2021/06/23 09:23:43;;;;;;;6.93;6.33;;;25.40;62.00;;;;;;5057823;28;20468;-48
2021/06/23 09:26:17;;;;;;;6.67;6.07;;;25.60;61.50;;;;;;5053470;28;20474;-49
2021/06/23 09:28:45;;;;;;;7.70;7.00;;;25.90;60.50;;;;;;5061690;28;20446;-49
2021/06/23 09:31:12;;;;;;;9.23;6.07;;;26.20;59.70;;;;;;5059287;28;20525;-49
2021/06/23 09:33:41;;;;;;;6.33;5.73;;;26.60;58.60;;;;;;5056598;28;20503;-49
2021/06/23 09:36:11;;;;;;;13.83;6.20;;;27.00;57.40;;;;;;5060638;28;20795;-49
2021/06/23 09:38:58;;;;;;;7.13;5.07;;;27.30;57.30;;;;;;5057429;28;20453;-49
2021/06/23 09:41:30;;;;;;;6.70;5.97;;;27.70;56.10;;;;;;5056554;28;20448;-49
2021/06/23 09:44:08;;;;;;;6.20;5.60;;;28.00;55.60;;;;;;5056532;28;20472;-49
2021/06/23 09:46:37;;;;;;;5.63;5.10;;;28.40;55.00;;;;;;5060888;28;20458;-49
2021/06/23 09:49:18;;;;;;;5.93;5.43;;;28.70;53.60;;;;;;5056345;28;20243;-49
2021/06/23 09:51:54;;;;;;;6.90;6.07;;;28.80;53.10;;;;;;5054452;28;20666;-49
2021/06/23 09:54:23;;;;;;;7.23;6.53;;;28.90;52.60;;;;;;5058800;28;20218;-49
2021/06/23 09:57:15;;;;;;;7.70;6.93;;;28.80;52.50;;;;;;5062258;28;20195;-49
2021/06/23 09:59:48;;;;;;;7.63;5.40;;;28.60;52.90;;;;;;5059862;28;20203;-49
2021/06/23 10:02:28;;;;;;;6.07;5.50;;;28.30;53.50;;;;;;5057243;28;20590;-49
2021/06/23 10:05:00;;;;;;;6.30;5.80;;;28.00;53.80;;;;;;5054299;28;20285;-49
2021/06/23 10:07:49;;;;;;;5.93;5.43;;;27.60;54.70;;;;;;5071727;28;21233;-49
2021/06/23 10:10:18;;;;;;;5.70;5.23;;;27.10;55.40;;;;;;5057293;28;20481;-49
2021/06/23 10:12:47;;;;;;;5.93;5.53;;;26.70;55.30;;;;;;5056972;28;20449;-49
2021/06/23 10:15:15;;;;;;;5.40;4.90;;;26.30;56.40;;;;;;5043076;28;20568;-49
2021/06/23 10:17:42;;;;;;;6.93;5.43;;;26.00;57.60;;;;;;5057847;28;20457;-49
2021/06/23 10:20:11;;;;;;;5.70;5.20;;;25.80;58.90;;;;;;5057677;28;20822;-49
2021/06/23 10:22:40;;;;;;;7.23;5.90;;;25.60;59.50;;;;;;5055712;28;20472;-49
2021/06/23 10:25:09;;;;;;;6.40;5.90;;;25.50;59.90;;;;;;5058073;28;20457;-49
2021/06/23 10:27:40;;;;;;;6.10;5.50;;;25.40;60.30;;;;;;5056647;28;20927;-49
2021/06/23 10:30:08;;;;;;;6.83;6.13;;;25.20;60.70;;;;;;5057522;28;20784;-49
2021/06/23 10:32:35;;;;;;;6.27;5.67;;;25.10;60.80;;;;;;5061730;28;20450;-49
2021/06/23 10:35:03;;;;;;;6.43;5.83;;;25.10;60.90;;;;;;5087577;28;21042;-49
2021/06/23 10:37:35;;;;;;;8.10;5.83;;;24.90;61.80;;;;;;5058221;28;20479;-49
2021/06/23 10:40:08;;;;;;;7.17;5.63;;;24.80;62.70;;;;;;5055443;28;20552;-49
2021/06/23 10:42:35;;;;;;;6.80;6.30;;;24.80;61.60;;;;;;5055868;28;20450;-49
2021/06/23 10:45:03;;;;;;;6.97;6.30;;;24.80;62.30;;;;;;5058250;28;20465;-49
2021/06/23 10:47:42;;;;;;;10.07;6.60;;;24.80;61.90;;;;;;5057327;28;20468;-49
2021/06/23 10:50:16;;;;;;;7.67;6.03;;;24.70;61.30;;;;;;5052459;28;20465;-49
2021/06/23 10:52:44;;;;;;;5.83;5.33;;;24.70;62.90;;;;;;5055607;28;20556;-49
2021/06/23 10:55:20;;;;;;;5.93;5.43;;;24.60;61.90;;;;;;5088435;28;20485;-49
2021/06/23 10:57:50;;;;;;;6.40;5.77;;;24.60;62.70;;;;;;5057477;28;20475;-49
2021/06/23 11:00:17;;;;;;;9.40;7.60;;;24.50;62.70;;;;;;5058448;28;21030;-49
2021/06/23 11:02:48;;;;;;;7.00;6.30;;;24.40;63.20;;;;;;5057261;28;20437;-49
2021/06/23 11:05:20;;;;;;;7.20;6.50;;;24.30;62.70;;;;;;5088571;28;20538;-49
2021/06/23 11:07:55;;;;;;;7.87;6.80;;;24.30;62.80;;;;;;5083353;28;20548;-49
2021/06/23 11:10:30;;;;;;;7.27;6.60;;;24.20;63.00;;;;;;5055622;28;20483;-49
2021/06/23 11:13:04;;;;;;;7.53;6.73;;;24.20;63.70;;;;;;5054340;28;20551;-49
2021/06/23 11:15:31;;;;;;;6.33;5.70;;;24.30;63.70;;;;;;5056334;28;20567;-49
2021/06/23 11:18:25;;;;;;;8.03;6.73;;;24.30;64.00;;;;;;5049102;28;20473;-49
2021/06/23 11:21:02;;;;;;;11.93;6.00;;;24.30;63.90;;;;;;5055974;28;20454;-49
2021/06/23 11:23:55;;;;;;;6.50;5.90;;;24.30;63.80;;;;;;5055324;28;20452;-49
2021/06/23 11:26:22;;;;;;;7.00;6.30;;;24.40;63.00;;;;;;5057113;28;20442;-49
2021/06/23 11:28:56;;;;;;;7.00;6.37;;;24.30;63.10;;;;;;5055791;28;20442;-49
2021/06/23 11:32:02;;;;;;;6.37;5.77;;;24.30;63.70;;;;;;5055778;28;20448;-49
2021/06/23 11:34:51;;;;;;;6.27;5.77;;;24.20;64.10;;;;;;5032889;28;21000;-49
2021/06/23 11:37:20;;;;;;;6.63;5.80;;;24.20;64.10;;;;;;5057105;28;20449;-49
2021/06/23 11:39:47;;;;;;;6.50;5.60;;;24.20;63.80;;;;;;5057174;28;20441;-49
2021/06/23 11:42:15;;;;;;;11.00;5.83;;;24.20;64.70;;;;;;5059267;28;20534;-49
2021/06/23 11:44:43;;;;;;;6.73;5.30;;;24.20;65.90;;;;;;5057380;28;20823;-49
2021/06/23 11:47:11;;;;;;;6.63;6.07;;;24.10;65.10;;;;;;5054063;28;20530;-49
2021/06/23 11:49:38;;;;;;;7.40;5.90;;;24.00;65.10;;;;;;5055799;28;20835;-49
2021/06/23 11:52:06;;;;;;;8.70;7.00;;;24.00;65.20;;;;;;5050343;28;20457;-49
2021/06/23 11:54:37;;;;;;;7.73;6.90;;;24.00;65.40;;;;;;5055911;28;20492;-49
2021/06/23 11:57:05;;;;;;;8.73;6.13;;;24.00;65.10;;;;;;5056759;28;20465;-49
2021/06/23 11:59:32;;;;;;;7.60;6.03;;;24.00;64.90;;;;;;5053932;28;20527;-49
2021/06/23 12:01:59;;;;;;;8.03;6.40;;;24.00;64.90;;;;;;5055054;28;20552;-49
2021/06/23 12:04:28;;;;;;;6.97;6.27;;;24.00;64.50;;;;;;5054874;28;20935;-49
2021/06/23 12:06:55;;;;;;;6.90;5.70;;;24.10;64.30;;;;;;5058487;28;20465;-49
2021/06/23 12:09:22;;;;;;;7.60;5.93;;;24.20;65.90;;;;;;5055433;28;20912;-49
2021/06/23 12:11:49;;;;;;;6.77;6.17;;;24.20;65.10;;;;;;5056161;28;22169;-49
2021/06/23 12:14:16;;;;;;;5.83;5.23;;;24.20;64.90;;;;;;5057257;28;20857;-49
2021/06/23 12:16:44;;;;;;;6.13;5.50;;;24.10;65.10;;;;;;5061980;28;20442;-49
2021/06/23 12:19:11;;;;;;;6.30;5.80;;;24.00;65.50;;;;;;5059252;28;20500;-49
2021/06/23 12:21:38;;;;;;;8.30;6.50;;;24.00;66.30;;;;;;5060538;28;20469;-49
2021/06/23 12:24:05;;;;;;;6.30;5.70;;;24.10;65.90;;;;;;5058912;28;20453;-49
2021/06/23 12:26:32;;;;;;;6.80;6.20;;;24.10;65.50;;;;;;5064281;28;20445;-49
2021/06/23 12:28:58;;;;;;;9.57;6.60;;;24.00;66.00;;;;;;5056401;28;20461;-49
2021/06/23 12:31:25;;;;;;;5.97;5.47;;;24.00;66.40;;;;;;5060768;28;20702;-48
2021/06/23 12:33:52;;;;;;;6.87;6.10;;;24.10;66.90;;;;;;5056410;28;20871;-49
2021/06/23 12:36:18;;;;;;;7.07;6.47;;;24.10;66.00;;;;;;5058620;28;20495;-49
2021/06/23 12:38:45;;;;;;;6.20;5.60;;;24.30;66.00;;;;;;5055227;28;20461;-49
2021/06/23 12:41:12;;;;;;;6.90;6.20;;;24.30;65.40;;;;;;5055176;28;20459;-48
2021/06/23 12:43:39;;;;;;;6.70;5.90;;;24.40;65.00;;;;;;5058362;28;20490;-49
2021/06/23 12:46:06;;;;;;;7.23;6.63;;;24.50;63.40;;;;;;5057174;28;20830;-49
2021/06/23 12:48:33;;;;;;;7.20;6.13;;;24.60;62.60;;;;;;5057384;28;20815;-49
2021/06/23 12:51:00;;;;;;;5.87;5.23;;;24.70;62.20;;;;;;5056542;28;20468;-49
2021/06/23 12:53:27;;;;;;;8.10;6.13;;;24.70;61.90;;;;;;5057039;28;20453;-49
2021/06/23 12:55:55;;;;;;;7.07;5.47;;;24.80;62.20;;;;;;5057418;28;20889;-49
2021/06/23 12:58:21;;;;;;;4.80;4.40;;;24.80;62.00;;;;;;5059260;28;20951;-49
2021/06/23 13:00:48;;;;;;;5.63;5.00;;;24.80;61.90;;;;;;5057102;28;20730;-49
2021/06/23 13:03:18;;;;;;;6.43;5.50;;;24.80;62.80;;;;;;5056322;28;20453;-48
2021/06/23 13:05:45;;;;;;;4.97;4.47;;;24.80;62.50;;;;;;5055954;28;20466;-49
2021/06/23 13:08:12;;;;;;;5.47;4.97;;;24.70;62.40;;;;;;5063202;28;20547;-49
2021/06/23 13:10:39;;;;;;;5.87;5.27;;;24.60;63.30;;;;;;5058612;28;20473;-49
2021/06/23 13:13:05;;;;;;;7.03;5.50;;;24.60;64.40;;;;;;5058119;28;20453;-48